Salt Lake City, Utah
Traffic Map
Current Weather Conditions
Salt Lake City, Utah
Broken Clouds
Broken Clouds
81°
Feels Like: 81°
Wind Chill: 81° Ceiling: 15000
Heat Index: 81° Visibility: 10mi
Dew Point: 56° Wind: 7mph
Humidity: 42% Direction: 100° (E)
Pressure: 30.16in Gusts: 0mph
Raw Report DataKSLC 302253Z 10006KT 10SM SCT055TCU SCT100 BKN150 BKN220 27/13 A3016 RMK AO2 SLP162 VIRGA DSNT SW CB DSNT SE AND SW TCU S T02720133 $
Traffic Incident Summary
Active as of:
Severity:
Category:
InformationThere was an issue retrieving the traffic information for this location. Please try a different location or try again shortly.
Advertisements
Track Severe Weather on mobile